createdAt,value
2022-09-06T00:00:18.731Z,69.11
2022-09-06T00:02:47.026Z,69.09
2022-09-06T00:05:14.665Z,68.62
2022-09-06T00:07:42.032Z,68.99
2022-09-06T00:10:10.383Z,69.14
2022-09-06T00:12:38.150Z,69.48
2022-09-06T00:15:06.648Z,69.66
2022-09-06T00:17:34.441Z,70.16
2022-09-06T00:20:03.571Z,69.26
2022-09-06T00:22:30.899Z,69.75
2022-09-06T00:24:57.863Z,69.40
2022-09-06T00:27:24.894Z,69.56
2022-09-06T00:29:52.199Z,70.04
2022-09-06T00:32:19.192Z,69.99
2022-09-06T00:35:00.021Z,70.06
2022-09-06T00:37:33.659Z,69.58
2022-09-06T00:40:00.664Z,70.56
2022-09-06T00:42:27.737Z,70.23
2022-09-06T00:44:55.045Z,70.80
2022-09-06T00:47:22.109Z,70.99
2022-09-06T00:49:53.782Z,70.72
2022-09-06T00:52:22.279Z,71.11
2022-09-06T00:54:51.031Z,70.96
2022-09-06T00:57:18.796Z,70.45
2022-09-06T00:59:47.713Z,71.00
2022-09-06T01:02:15.122Z,70.39
2022-09-06T01:04:44.581Z,70.21
2022-09-06T01:07:25.686Z,70.68
2022-09-06T01:10:21.888Z,70.57
2022-09-06T01:13:17.331Z,70.32
2022-09-06T01:16:19.931Z,70.74
2022-09-06T01:19:10.882Z,70.30
2022-09-06T01:22:08.484Z,70.48
2022-09-06T01:24:54.802Z,69.97
2022-09-06T01:27:44.260Z,70.77
2022-09-06T01:30:13.822Z,70.44
2022-09-06T01:33:11.769Z,70.63
2022-09-06T01:35:55.325Z,70.67
2022-09-06T01:38:22.448Z,70.59
2022-09-06T01:40:49.408Z,70.86
2022-09-06T01:43:34.755Z,70.72
2022-09-06T01:46:27.863Z,70.43
2022-09-06T01:49:13.342Z,70.75
2022-09-06T01:52:09.127Z,70.82
2022-09-06T01:54:57.944Z,71.07
2022-09-06T01:58:04.836Z,70.82
2022-09-06T02:00:53.904Z,70.73
2022-09-06T02:03:49.618Z,70.97
2022-09-06T02:06:28.851Z,70.56
2022-09-06T02:09:07.685Z,70.87
2022-09-06T02:11:48.629Z,71.05
2022-09-06T02:14:22.892Z,71.05
2022-09-06T02:16:53.889Z,71.08
2022-09-06T02:19:50.029Z,71.10
2022-09-06T02:22:22.429Z,71.09
2022-09-06T02:24:53.551Z,71.29
2022-09-06T02:27:20.681Z,70.88
2022-09-06T02:29:47.662Z,71.81
2022-09-06T02:32:25.759Z,71.51
2022-09-06T02:34:55.790Z,71.54
2022-09-06T02:37:26.909Z,71.83
2022-09-06T02:39:56.188Z,71.64
2022-09-06T02:42:24.910Z,71.67
2022-09-06T02:44:52.164Z,71.58
2022-09-06T02:47:19.355Z,71.56
2022-09-06T02:49:46.324Z,71.33
2022-09-06T02:52:13.435Z,71.59
2022-09-06T02:54:40.960Z,71.06
2022-09-06T02:57:08.012Z,71.04
2022-09-06T02:59:34.923Z,71.07
2022-09-06T03:02:02.020Z,71.36
2022-09-06T03:04:29.026Z,71.32
2022-09-06T03:06:56.503Z,71.28
2022-09-06T03:09:23.508Z,71.55
2022-09-06T03:11:50.640Z,71.32
2022-09-06T03:14:19.463Z,71.70
2022-09-06T03:16:46.386Z,71.18
2022-09-06T03:19:13.349Z,71.56
2022-09-06T03:21:40.277Z,71.48
2022-09-06T03:24:07.318Z,71.86
2022-09-06T03:26:34.262Z,72.15
2022-09-06T03:29:01.213Z,71.81
2022-09-06T03:31:28.274Z,72.25
2022-09-06T03:33:55.198Z,71.96
2022-09-06T03:36:22.388Z,72.45
2022-09-06T03:38:51.141Z,72.48
2022-09-06T03:41:18.230Z,72.07
2022-09-06T03:43:45.179Z,72.81
2022-09-06T03:46:13.644Z,72.60
2022-09-06T03:48:40.906Z,72.49
2022-09-06T03:51:07.881Z,72.53
2022-09-06T03:53:35.025Z,72.40
2022-09-06T03:56:02.519Z,72.72
2022-09-06T03:58:31.694Z,72.97
2022-09-06T04:01:11.972Z,73.12
2022-09-06T04:03:39.506Z,73.10
2022-09-06T04:06:08.275Z,73.30
2022-09-06T04:08:38.204Z,73.32
2022-09-06T04:11:06.247Z,73.06
2022-09-06T04:13:34.894Z,73.15
2022-09-06T04:16:02.386Z,73.12
2022-09-06T04:18:29.793Z,73.30
2022-09-06T04:20:58.179Z,73.77
2022-09-06T04:23:27.889Z,73.58
2022-09-06T04:25:57.138Z,73.38
2022-09-06T04:28:26.538Z,73.45
2022-09-06T04:30:55.893Z,73.91
2022-09-06T04:33:27.625Z,73.72
2022-09-06T04:36:00.665Z,73.67
2022-09-06T04:38:30.466Z,73.82
2022-09-06T04:40:57.626Z,73.65
2022-09-06T04:43:25.037Z,73.59
2022-09-06T04:45:52.242Z,73.46
2022-09-06T04:48:19.337Z,73.77
2022-09-06T04:50:46.425Z,73.55
2022-09-06T04:53:13.569Z,73.16
2022-09-06T04:55:40.604Z,73.28
2022-09-06T04:58:07.688Z,73.62
2022-09-06T05:00:36.474Z,73.13
2022-09-06T05:03:03.933Z,73.59
2022-09-06T05:05:30.981Z,73.51
2022-09-06T05:07:58.157Z,73.89
2022-09-06T05:10:25.327Z,73.84
2022-09-06T05:12:54.103Z,73.78
2022-09-06T05:15:22.628Z,73.81
2022-09-06T05:17:49.667Z,73.70
2022-09-06T05:20:17.705Z,73.97
2022-09-06T05:22:53.675Z,73.76
2022-09-06T05:25:20.996Z,74.23
2022-09-06T05:27:48.136Z,74.08
2022-09-06T05:30:15.798Z,73.97
2022-09-06T05:32:42.966Z,74.08
2022-09-06T05:35:10.026Z,74.26
2022-09-06T05:37:37.010Z,74.41
2022-09-06T05:40:04.130Z,74.52
2022-09-06T05:42:31.078Z,74.38
2022-09-06T05:44:58.023Z,75.06
2022-09-06T05:47:25.208Z,74.88
2022-09-06T05:49:53.976Z,75.12
2022-09-06T05:52:20.883Z,75.29
2022-09-06T05:54:47.833Z,75.38
2022-09-06T05:57:14.818Z,75.33
2022-09-06T05:59:41.741Z,75.33
2022-09-06T06:02:08.728Z,76.10
2022-09-06T06:04:36.095Z,75.20
2022-09-06T06:07:03.065Z,75.68
2022-09-06T06:09:30.756Z,75.42
2022-09-06T06:11:58.101Z,75.56
2022-09-06T06:14:25.316Z,75.46
2022-09-06T06:16:52.757Z,75.07
2022-09-06T06:19:19.910Z,75.54
2022-09-06T06:21:46.915Z,75.22
2022-09-06T06:24:14.235Z,75.62
2022-09-06T06:26:41.377Z,75.67
2022-09-06T06:29:09.683Z,75.59
2022-09-06T06:31:39.249Z,75.63
2022-09-06T06:34:07.127Z,75.72
2022-09-06T06:36:36.251Z,75.33
2022-09-06T06:39:06.709Z,75.44
2022-09-06T06:41:34.556Z,75.06
2022-09-06T06:44:04.029Z,74.99
2022-09-06T06:46:41.685Z,75.03
2022-09-06T06:49:08.754Z,74.94
2022-09-06T06:51:39.508Z,75.39
2022-09-06T06:54:06.604Z,75.00
2022-09-06T06:56:37.775Z,75.06
2022-09-06T06:59:07.820Z,75.22
2022-09-06T07:01:37.322Z,75.98
2022-09-06T07:04:06.167Z,75.71
2022-09-06T07:12:24.711Z,76.07
2022-09-06T07:14:51.819Z,76.12
2022-09-06T07:17:18.757Z,75.88
2022-09-06T07:22:32.740Z,75.30
2022-09-06T07:24:59.705Z,75.23
2022-09-06T07:30:14.358Z,75.56
2022-09-06T07:32:41.555Z,75.15
2022-09-06T07:35:09.248Z,75.61
2022-09-06T07:37:36.184Z,75.57
2022-09-06T07:40:04.652Z,75.45
2022-09-06T07:42:36.347Z,74.99
2022-09-06T07:45:05.475Z,75.06
2022-09-06T07:53:14.976Z,74.99
2022-09-06T07:55:44.723Z,74.72
2022-09-06T07:58:11.737Z,74.95
2022-09-06T08:00:41.216Z,74.41
2022-09-06T08:03:08.757Z,74.40
2022-09-06T08:11:10.664Z,73.76
2022-09-06T08:13:38.316Z,73.31
2022-09-06T08:16:08.850Z,74.29
2022-09-06T08:18:37.900Z,73.66
2022-09-06T08:21:15.957Z,73.85
2022-09-06T08:23:49.722Z,74.16
2022-09-06T08:26:18.555Z,73.72
2022-09-06T08:28:45.539Z,73.31
2022-09-06T08:31:18.004Z,72.87
2022-09-06T08:33:45.636Z,73.19
2022-09-06T08:36:12.644Z,72.54
2022-09-06T08:38:39.708Z,73.13
2022-09-06T08:41:27.665Z,72.59
2022-09-06T08:47:11.032Z,71.74
2022-09-06T08:49:47.443Z,71.88
2022-09-06T08:52:54.489Z,71.66
2022-09-06T08:55:54.135Z,71.49
2022-09-06T08:58:50.340Z,71.67
2022-09-06T09:01:23.226Z,71.76
2022-09-06T09:03:53.574Z,71.57
2022-09-06T09:06:20.752Z,71.15
2022-09-06T09:09:08.461Z,70.36
2022-09-06T09:11:36.619Z,70.54
2022-09-06T09:14:16.469Z,70.18
2022-09-06T09:16:44.218Z,69.32
2022-09-06T09:19:11.370Z,68.55
2022-09-06T09:21:40.518Z,68.55
2022-09-06T09:24:11.254Z,69.34
2022-09-06T09:27:11.319Z,68.42
2022-09-06T09:32:45.206Z,66.75
2022-09-06T09:35:27.588Z,66.49
2022-09-06T09:38:11.015Z,66.54
2022-09-06T09:41:00.784Z,65.55
2022-09-06T09:43:33.485Z,65.33
2022-09-06T09:46:13.225Z,65.52
2022-09-06T09:48:49.708Z,65.51
2022-09-06T09:51:26.202Z,65.48
2022-09-06T09:53:57.015Z,64.71
2022-09-06T09:56:47.817Z,64.63
2022-09-06T09:59:25.129Z,64.21
2022-09-06T10:01:56.486Z,64.59
2022-09-06T10:07:14.797Z,64.54
2022-09-06T10:09:46.844Z,64.76
2022-09-06T10:12:19.036Z,64.77
2022-09-06T10:14:49.768Z,64.24
2022-09-06T10:17:37.814Z,63.82
2022-09-06T10:20:12.920Z,63.12
2022-09-06T10:22:50.148Z,61.86
2022-09-06T10:26:16.113Z,62.36
2022-09-06T10:28:44.266Z,61.89
2022-09-06T10:31:51.176Z,61.47
2022-09-06T10:35:03.348Z,60.95
2022-09-06T10:38:07.595Z,60.27
2022-09-06T10:41:01.025Z,60.65
2022-09-06T10:43:43.938Z,60.50
2022-09-06T10:46:16.194Z,59.43
2022-09-06T10:48:46.252Z,59.26
2022-09-06T10:51:32.327Z,59.04
2022-09-06T10:54:09.757Z,59.25
2022-09-06T10:56:50.117Z,59.17
2022-09-06T10:59:42.132Z,59.63
2022-09-06T11:02:40.499Z,59.03
2022-09-06T11:11:11.861Z,57.64
2022-09-06T11:13:39.198Z,58.13
2022-09-06T11:16:18.748Z,58.54
2022-09-06T11:19:06.035Z,57.80
2022-09-06T11:22:06.795Z,56.94
2022-09-06T11:24:44.222Z,57.28
2022-09-06T11:27:28.014Z,56.43
2022-09-06T11:29:56.618Z,55.76
2022-09-06T11:32:34.195Z,56.23
2022-09-06T11:35:07.434Z,55.67
2022-09-06T11:37:39.410Z,55.75
2022-09-06T11:40:28.224Z,55.66
2022-09-06T11:42:55.745Z,55.86
2022-09-06T11:45:50.834Z,55.83
2022-09-06T11:48:23.502Z,55.30
2022-09-06T11:50:59.260Z,55.73
2022-09-06T11:53:32.923Z,55.69
2022-09-06T11:56:00.064Z,55.57
2022-09-06T11:58:34.317Z,55.67
2022-09-06T12:01:13.392Z,55.15
2022-09-06T12:07:07.604Z,53.51
2022-09-06T12:09:37.933Z,52.83
2022-09-06T12:12:05.998Z,51.70
2022-09-06T12:14:46.813Z,51.80
2022-09-06T12:17:14.018Z,52.56
2022-09-06T12:20:08.303Z,51.75
2022-09-06T12:22:40.313Z,51.36
2022-09-06T12:25:35.978Z,51.93
2022-09-06T12:28:07.447Z,51.48
2022-09-06T12:30:42.138Z,51.81
2022-09-06T12:33:36.201Z,50.53
2022-09-06T12:36:13.903Z,50.11
2022-09-06T12:38:57.352Z,50.00
2022-09-06T12:41:27.806Z,50.17
2022-09-06T12:43:56.188Z,49.21
2022-09-06T12:46:25.793Z,49.12
2022-09-06T12:49:22.295Z,47.68
2022-09-06T12:51:49.860Z,48.14
2022-09-06T12:54:23.926Z,48.56
2022-09-06T12:56:52.762Z,47.94
2022-09-06T12:59:21.378Z,48.85
2022-09-06T13:02:16.758Z,48.03
2022-09-06T13:04:51.309Z,49.04
2022-09-06T13:07:21.081Z,48.73
2022-09-06T13:09:52.036Z,47.80
2022-09-06T13:12:34.869Z,46.92
2022-09-06T13:15:13.587Z,46.52
2022-09-06T13:17:40.613Z,45.84
2022-09-06T13:20:30.786Z,45.22
2022-09-06T13:23:10.514Z,44.93
2022-09-06T13:25:53.131Z,45.03
2022-09-06T13:28:29.574Z,44.85
2022-09-06T13:31:21.673Z,46.56
2022-09-06T13:33:57.527Z,46.71
2022-09-06T13:36:33.875Z,47.00
2022-09-06T13:39:03.748Z,47.17
2022-09-06T13:41:30.628Z,46.22
2022-09-06T13:44:29.765Z,44.86
2022-09-06T13:46:58.087Z,44.87
2022-09-06T13:49:25.927Z,43.80
2022-09-06T13:51:56.377Z,43.64
2022-09-06T13:54:24.949Z,42.87
2022-09-06T13:56:51.970Z,42.64
2022-09-06T13:59:19.423Z,42.83
2022-09-06T14:01:50.374Z,44.22
2022-09-06T14:04:21.647Z,44.23
2022-09-06T14:06:49.087Z,44.53
2022-09-06T14:09:16.347Z,42.92
2022-09-06T14:11:48.006Z,43.05
2022-09-06T14:14:17.731Z,42.70
2022-09-06T14:16:47.628Z,42.30
2022-09-06T14:19:15.473Z,42.59
2022-09-06T14:21:43.339Z,43.19
2022-09-06T14:24:11.180Z,43.17
2022-09-06T14:26:38.876Z,42.79
2022-09-06T14:29:06.391Z,43.09
2022-09-06T14:31:33.645Z,42.65
2022-09-06T14:34:02.088Z,42.47
2022-09-06T14:36:31.584Z,42.30
2022-09-06T14:39:00.951Z,42.81
2022-09-06T14:41:28.505Z,42.75
2022-09-06T14:43:58.260Z,42.11
2022-09-06T14:46:28.094Z,43.36
2022-09-06T14:49:04.719Z,43.57
2022-09-06T14:51:31.844Z,42.64
2022-09-06T14:54:06.670Z,41.64
2022-09-06T14:56:34.495Z,41.74
2022-09-06T14:59:01.675Z,41.86
2022-09-06T15:01:35.776Z,42.13
2022-09-06T15:04:07.546Z,41.90
2022-09-06T15:06:37.177Z,42.77
2022-09-06T15:09:05.719Z,43.09
2022-09-06T15:11:37.311Z,43.43
2022-09-06T15:14:08.598Z,43.64
2022-09-06T15:16:36.470Z,43.22
2022-09-06T15:19:04.195Z,43.32
2022-09-06T15:21:32.165Z,43.85
2022-09-06T15:24:03.163Z,43.82
2022-09-06T15:26:30.850Z,44.24
2022-09-06T15:28:57.901Z,44.61
2022-09-06T15:31:25.403Z,44.85
2022-09-06T15:33:52.863Z,45.39
2022-09-06T15:36:20.830Z,45.79
2022-09-06T15:38:50.097Z,44.96
2022-09-06T15:41:25.307Z,43.79
2022-09-06T15:44:01.721Z,43.90
2022-09-06T15:46:35.038Z,44.06
2022-09-06T15:49:04.146Z,44.18
2022-09-06T15:51:34.075Z,44.56
2022-09-06T15:54:01.351Z,44.19
2022-09-06T15:56:28.594Z,44.63
2022-09-06T15:58:55.569Z,45.11
2022-09-06T16:01:25.710Z,44.52
2022-09-06T16:04:03.434Z,43.79
2022-09-06T16:06:43.938Z,44.50
2022-09-06T16:09:14.337Z,45.22
2022-09-06T16:11:42.312Z,44.68
2022-09-06T16:14:13.758Z,44.86
2022-09-06T16:16:42.446Z,44.88
2022-09-06T16:19:12.550Z,44.33
2022-09-06T16:21:43.995Z,43.93
2022-09-06T16:24:14.364Z,45.33
2022-09-06T16:26:46.222Z,44.80
2022-09-06T16:29:16.583Z,44.46
2022-09-06T16:31:44.152Z,44.86
2022-09-06T16:34:12.873Z,44.40
2022-09-06T16:36:40.323Z,44.64
2022-09-06T16:39:08.707Z,45.56
2022-09-06T16:41:40.651Z,45.12
2022-09-06T16:44:16.734Z,45.40
2022-09-06T16:46:50.009Z,46.15
2022-09-06T16:49:19.204Z,46.57
2022-09-06T16:51:48.243Z,46.17
2022-09-06T16:54:15.903Z,47.07
2022-09-06T16:56:42.950Z,47.20
2022-09-06T16:59:11.635Z,46.78
2022-09-06T17:01:41.834Z,46.41
2022-09-06T17:04:09.739Z,47.13
2022-09-06T17:06:44.257Z,47.31
2022-09-06T17:09:14.741Z,47.30
2022-09-06T17:11:41.801Z,47.44
2022-09-06T17:14:09.192Z,47.92
2022-09-06T17:16:54.748Z,47.62
2022-09-06T17:19:22.442Z,48.32
2022-09-06T17:21:49.685Z,48.68
2022-09-06T17:24:17.082Z,47.96
2022-09-06T17:26:44.127Z,48.54
2022-09-06T17:29:11.114Z,48.83
2022-09-06T17:31:38.862Z,48.76
2022-09-06T17:34:07.084Z,49.26
2022-09-06T17:36:53.237Z,49.11
2022-09-06T17:39:21.421Z,49.68
2022-09-06T17:41:52.254Z,49.54
2022-09-06T17:44:22.676Z,49.76
2022-09-06T17:47:11.458Z,49.65
2022-09-06T17:49:36.847Z,50.06
2022-09-06T17:52:03.925Z,49.82
2022-09-06T17:54:31.856Z,50.28
2022-09-06T17:56:58.940Z,50.18
2022-09-06T17:59:25.995Z,51.04
2022-09-06T18:01:52.999Z,51.37
2022-09-06T18:04:20.037Z,52.00
2022-09-06T18:06:47.592Z,51.90
2022-09-06T18:09:17.583Z,52.56
2022-09-06T18:11:48.432Z,52.46
2022-09-06T18:14:18.738Z,52.71
2022-09-06T18:16:47.377Z,52.01
2022-09-06T18:19:15.648Z,51.69
2022-09-06T18:21:43.162Z,51.84
2022-09-06T18:24:13.867Z,51.99
2022-09-06T18:26:41.949Z,52.11
2022-09-06T18:29:13.024Z,52.30
2022-09-06T18:31:41.264Z,52.14
2022-09-06T18:34:09.333Z,51.96
2022-09-06T18:36:38.369Z,52.30
2022-09-06T18:39:06.357Z,52.16
2022-09-06T18:41:52.751Z,52.37
2022-09-06T18:44:19.848Z,52.57
2022-09-06T18:46:47.935Z,52.93
2022-09-06T18:49:15.869Z,53.34
2022-09-06T18:51:44.649Z,53.65
2022-09-06T18:54:11.639Z,53.25
2022-09-06T18:56:38.734Z,53.12
2022-09-06T18:59:07.104Z,53.48
2022-09-06T19:01:35.322Z,53.54
2022-09-06T19:04:10.879Z,53.41
2022-09-06T19:06:40.223Z,53.59
2022-09-06T19:09:11.947Z,53.25
2022-09-06T19:11:41.565Z,53.30
2022-09-06T19:14:08.637Z,53.21
2022-09-06T19:16:35.902Z,53.20
2022-09-06T19:19:06.836Z,53.29
2022-09-06T19:21:37.935Z,53.64
2022-09-06T19:24:12.058Z,53.66
2022-09-06T19:26:43.494Z,53.48
2022-09-06T19:29:17.547Z,53.96
2022-09-06T19:31:46.957Z,54.05
2022-09-06T19:34:15.524Z,54.08
2022-09-06T19:36:44.523Z,53.90
2022-09-06T19:39:15.501Z,54.06
2022-09-06T19:41:45.071Z,54.20
2022-09-06T19:44:12.885Z,54.58
2022-09-06T19:46:45.466Z,54.78
2022-09-06T19:49:15.968Z,54.60
2022-09-06T19:51:45.279Z,54.80
2022-09-06T19:54:15.386Z,55.25
2022-09-06T19:56:43.709Z,55.83
2022-09-06T19:59:12.933Z,55.89
2022-09-06T20:01:42.360Z,56.44
2022-09-06T20:04:11.766Z,56.74
2022-09-06T20:06:39.275Z,56.88
2022-09-06T20:09:09.961Z,57.17
2022-09-06T20:11:38.830Z,57.08
2022-09-06T20:14:06.169Z,57.54
2022-09-06T20:16:34.585Z,57.80
2022-09-06T20:19:04.047Z,57.70
2022-09-06T20:21:31.508Z,58.06
2022-09-06T20:23:59.561Z,57.99
2022-09-06T20:26:30.369Z,58.45
2022-09-06T20:29:02.771Z,58.43
2022-09-06T20:31:31.627Z,58.58
2022-09-06T20:34:00.854Z,58.50
2022-09-06T20:36:28.442Z,58.83
2022-09-06T20:38:55.478Z,58.88
2022-09-06T20:41:25.877Z,59.46
2022-09-06T20:43:58.582Z,59.27
2022-09-06T20:46:29.238Z,58.83
2022-09-06T20:48:59.710Z,59.13
2022-09-06T20:51:31.039Z,59.10
2022-09-06T20:54:00.927Z,59.31
2022-09-06T20:56:34.502Z,59.55
2022-09-06T20:59:04.021Z,59.31
2022-09-06T21:01:36.078Z,58.76
2022-09-06T21:04:06.351Z,58.38
2022-09-06T21:06:36.606Z,58.96
2022-09-06T21:09:11.169Z,58.47
2022-09-06T21:11:38.869Z,58.76
2022-09-06T21:14:07.564Z,58.71
2022-09-06T21:16:35.037Z,59.07
2022-09-06T21:19:05.706Z,59.12
2022-09-06T21:21:34.750Z,58.73
2022-09-06T21:24:04.729Z,58.63
2022-09-06T21:26:32.364Z,58.79
2022-09-06T21:28:59.603Z,58.85
2022-09-06T21:31:31.402Z,59.02
2022-09-06T21:34:03.851Z,59.19
2022-09-06T21:36:35.806Z,59.62
2022-09-06T21:39:15.273Z,59.50
2022-09-06T21:41:44.086Z,59.35
2022-09-06T21:44:12.333Z,58.88
2022-09-06T21:46:40.620Z,59.37
2022-09-06T21:49:13.427Z,58.82
2022-09-06T21:51:41.771Z,59.14
2022-09-06T21:54:09.561Z,59.65
2022-09-06T21:56:38.760Z,59.56
2022-09-06T21:59:07.330Z,60.03
2022-09-06T22:01:36.663Z,60.29
2022-09-06T22:04:06.010Z,60.32
2022-09-06T22:06:35.170Z,60.57
2022-09-06T22:09:11.555Z,60.70
2022-09-06T22:11:41.187Z,60.99
2022-09-06T22:14:11.879Z,60.73
2022-09-06T22:16:40.573Z,61.22
2022-09-06T22:19:10.090Z,61.02
2022-09-06T22:21:38.705Z,61.18
2022-09-06T22:24:11.334Z,60.93
2022-09-06T22:26:40.708Z,61.45
2022-09-06T22:29:10.784Z,60.86
2022-09-06T22:31:39.302Z,61.06
2022-09-06T22:34:06.572Z,61.30
2022-09-06T22:36:33.933Z,61.68
2022-09-06T22:39:01.096Z,61.15
2022-09-06T22:41:31.507Z,61.74
2022-09-06T22:44:03.161Z,61.75
2022-09-06T22:46:31.734Z,61.82
2022-09-06T22:48:59.382Z,61.46
2022-09-06T22:51:26.285Z,61.90
2022-09-06T22:53:53.292Z,62.16
2022-09-06T22:56:21.200Z,62.17
2022-09-06T22:58:48.413Z,62.73
2022-09-06T23:01:16.961Z,62.45
2022-09-06T23:03:45.349Z,62.92
2022-09-06T23:06:12.707Z,62.72
2022-09-06T23:08:41.002Z,62.87
2022-09-06T23:11:14.597Z,62.94
2022-09-06T23:13:43.746Z,63.67
2022-09-06T23:16:19.505Z,63.09
2022-09-06T23:18:48.075Z,63.15
2022-09-06T23:21:19.309Z,63.98
2022-09-06T23:23:48.583Z,64.02
2022-09-06T23:26:24.564Z,64.37
2022-09-06T23:28:56.480Z,64.00
2022-09-06T23:31:31.566Z,63.96
2022-09-06T23:34:00.896Z,64.57
2022-09-06T23:36:28.456Z,64.10
2022-09-06T23:38:56.071Z,64.53
2022-09-06T23:41:24.441Z,64.42
2022-09-06T23:43:51.841Z,63.77
2022-09-06T23:46:19.514Z,64.18
2022-09-06T23:48:46.938Z,64.55
2022-09-06T23:51:14.166Z,63.88
2022-09-06T23:53:41.476Z,64.60
2022-09-06T23:56:09.087Z,64.39
2022-09-06T23:58:36.633Z,64.09
